createdAt,value
2024-04-13T00:02:22.239Z,4.20
2024-04-13T00:04:51.855Z,5.30
2024-04-13T00:07:21.481Z,4.80
2024-04-13T00:09:50.857Z,5.30
2024-04-13T00:12:20.467Z,4.80
2024-04-13T00:14:52.269Z,5.10
2024-04-13T00:17:23.014Z,5.00
2024-04-13T00:19:52.611Z,6.20
2024-04-13T00:37:46.735Z,4.20
2024-04-13T00:40:16.903Z,4.80
2024-04-13T00:42:46.914Z,4.70
2024-04-13T00:45:16.629Z,5.40
2024-04-13T00:47:46.944Z,5.50
2024-04-13T00:50:19.741Z,4.90
2024-04-13T00:52:50.934Z,5.60
2024-04-13T00:55:20.539Z,4.00
2024-04-13T00:57:49.895Z,4.90
2024-04-13T01:00:20.635Z,4.80
2024-04-13T01:02:50.169Z,4.80
2024-04-13T01:05:19.736Z,5.90
2024-04-13T01:07:49.354Z,4.50
2024-04-13T01:10:22.234Z,4.10
2024-04-13T01:12:51.923Z,5.50
2024-04-13T01:15:21.357Z,5.30
2024-04-13T01:17:50.982Z,5.50
2024-04-13T01:20:21.315Z,4.80
2024-04-13T01:22:51.809Z,3.90
2024-04-13T01:25:22.995Z,4.80
2024-04-13T01:27:52.464Z,4.50
2024-04-13T01:30:23.531Z,6.50
2024-04-13T01:32:53.384Z,4.60
2024-04-13T01:35:23.014Z,5.20
2024-04-13T01:37:52.558Z,5.20
2024-04-13T01:40:22.323Z,5.70
2024-04-13T01:42:52.284Z,5.70
2024-04-13T01:45:21.911Z,6.90
2024-04-13T01:47:51.640Z,6.50
2024-04-13T01:50:21.473Z,8.50
2024-04-13T01:52:51.139Z,5.70
2024-04-13T01:55:20.555Z,4.80
2024-04-13T01:57:49.980Z,5.30
2024-04-13T02:00:20.176Z,6.20
2024-04-13T02:02:49.958Z,5.30
2024-04-13T02:05:19.467Z,4.90
2024-04-13T02:07:48.877Z,5.40
2024-04-13T02:10:21.387Z,5.90
2024-04-13T02:12:51.008Z,4.80
2024-04-13T02:15:20.500Z,6.30
2024-04-13T02:17:50.143Z,8.10
2024-04-13T02:20:19.700Z,5.40
2024-04-13T02:22:49.562Z,5.80
2024-04-13T02:25:19.384Z,6.00
2024-04-13T02:27:49.786Z,6.20
2024-04-13T02:30:19.471Z,5.00
2024-04-13T02:32:49.041Z,6.10
2024-04-13T02:35:18.707Z,5.40
2024-04-13T02:37:48.166Z,5.20
2024-04-13T02:40:18.098Z,5.40
2024-04-13T02:42:47.953Z,6.20
2024-04-13T02:45:19.339Z,4.90
2024-04-13T02:47:51.496Z,6.10
2024-04-13T02:50:20.987Z,5.60
2024-04-13T02:52:53.511Z,5.20
2024-04-13T02:55:23.093Z,4.90
2024-04-13T02:57:52.624Z,6.50
2024-04-13T03:00:22.193Z,6.00
2024-04-13T03:02:51.988Z,5.30
2024-04-13T03:05:21.610Z,6.60
2024-04-13T03:07:51.300Z,6.20
2024-04-13T03:10:20.812Z,5.90
2024-04-13T03:12:50.341Z,6.70
2024-04-13T03:15:19.922Z,4.70
2024-04-13T03:17:49.595Z,6.50
2024-04-13T03:20:19.282Z,5.10
2024-04-13T03:22:48.797Z,6.10
2024-04-13T03:25:18.336Z,4.60
2024-04-13T03:27:48.076Z,6.80
2024-04-13T03:30:17.626Z,9.10
2024-04-13T03:32:47.362Z,5.70
2024-04-13T03:35:16.826Z,5.60
2024-04-13T03:37:46.436Z,5.90
2024-04-13T03:40:16.023Z,6.40
2024-04-13T03:42:46.366Z,6.80
2024-04-13T03:45:17.723Z,6.20
2024-04-13T03:47:47.466Z,5.60
2024-04-13T03:50:17.602Z,5.80
2024-04-13T03:52:47.278Z,4.90
2024-04-13T03:55:16.970Z,5.00
2024-04-13T03:57:46.578Z,5.10
2024-04-13T04:00:17.939Z,7.90
2024-04-13T04:02:47.485Z,6.60
2024-04-13T04:05:17.245Z,7.80
2024-04-13T04:07:46.692Z,6.20
2024-04-13T04:10:16.154Z,6.40
2024-04-13T04:12:45.643Z,4.60
2024-04-13T04:15:15.310Z,6.20
2024-04-13T04:17:44.806Z,7.00
2024-04-13T04:20:14.704Z,5.90
2024-04-13T04:22:44.395Z,5.60
2024-04-13T04:25:14.101Z,5.70
2024-04-13T04:27:43.809Z,7.00
2024-04-13T04:30:14.072Z,5.40
2024-04-13T04:32:46.645Z,6.90
2024-04-13T04:35:16.618Z,8.20
2024-04-13T04:37:46.522Z,9.40
2024-04-13T04:40:16.216Z,8.40
2024-04-13T04:42:45.890Z,9.10
2024-04-13T04:45:15.536Z,8.10
2024-04-13T04:47:46.052Z,7.60
2024-04-13T04:50:15.530Z,5.50
2024-04-13T04:52:48.302Z,6.00
2024-04-13T04:55:17.767Z,4.70
2024-04-13T04:57:47.334Z,5.90
2024-04-13T05:00:17.393Z,4.90
2024-04-13T05:02:46.890Z,6.50
2024-04-13T05:05:16.958Z,5.40
2024-04-13T05:07:48.586Z,6.10
2024-04-13T05:10:19.587Z,5.30
2024-04-13T05:12:49.083Z,6.50
2024-04-13T05:15:18.652Z,5.80
2024-04-13T05:17:48.512Z,5.40
2024-04-13T05:20:18.157Z,5.20
2024-04-13T05:22:47.699Z,4.50
2024-04-13T05:25:18.560Z,7.50
2024-04-13T05:27:48.230Z,5.80
2024-04-13T05:30:17.944Z,5.40
2024-04-13T05:32:47.532Z,5.20
2024-04-13T05:35:17.724Z,6.50
2024-04-13T05:37:47.781Z,7.00
2024-04-13T05:40:17.557Z,5.00
2024-04-13T05:42:47.332Z,4.70
2024-04-13T05:45:17.030Z,6.30
2024-04-13T05:47:46.555Z,6.30
2024-04-13T05:50:16.168Z,5.70
2024-04-13T05:52:45.720Z,5.20
2024-04-13T05:55:15.126Z,6.30
2024-04-13T05:57:44.653Z,4.60
2024-04-13T06:00:14.622Z,5.10
2024-04-13T06:02:44.246Z,5.50
2024-04-13T06:05:13.691Z,4.60
2024-04-13T06:07:44.351Z,6.40
2024-04-13T06:10:13.875Z,4.80
2024-04-13T06:12:44.762Z,5.30
2024-04-13T06:15:14.412Z,6.70
2024-04-13T06:17:44.016Z,4.30
2024-04-13T06:20:13.593Z,7.60
2024-04-13T06:22:43.017Z,6.60
2024-04-13T06:25:12.738Z,4.90
2024-04-13T06:27:42.491Z,5.20
2024-04-13T06:30:14.531Z,4.90
2024-04-13T06:32:44.384Z,5.20
2024-04-13T06:35:13.982Z,5.60
2024-04-13T06:37:43.613Z,5.80
2024-04-13T06:40:13.919Z,5.50
2024-04-13T06:42:44.569Z,4.90
2024-04-13T06:45:14.631Z,5.10
2024-04-13T06:47:44.395Z,5.70
2024-04-13T06:52:41.075Z,4.70
2024-04-13T06:55:11.039Z,5.50
2024-04-13T06:57:41.117Z,5.30
2024-04-13T07:00:12.668Z,4.80
2024-04-13T07:02:42.371Z,6.50
2024-04-13T07:05:11.839Z,4.60
2024-04-13T07:07:41.373Z,4.60
2024-04-13T07:10:11.245Z,6.20
2024-04-13T07:12:40.841Z,6.20
2024-04-13T07:15:10.909Z,4.60
2024-04-13T07:17:40.451Z,7.10
2024-04-13T07:20:10.988Z,4.40
2024-04-13T07:22:40.736Z,4.20
2024-04-13T07:25:10.272Z,3.30
2024-04-13T07:27:39.840Z,3.10
2024-04-13T07:30:10.886Z,4.90
2024-04-13T07:32:40.450Z,3.80
2024-04-13T07:35:10.168Z,3.70
2024-04-13T07:37:39.794Z,4.10
2024-04-13T08:01:23.195Z,5.40
2024-04-13T08:03:52.886Z,4.40
2024-04-13T08:06:23.787Z,5.00
2024-04-13T08:08:53.407Z,6.00
2024-04-13T08:11:23.178Z,6.20
2024-04-13T08:13:52.853Z,4.90
2024-04-13T08:16:22.383Z,5.50
2024-04-13T08:18:52.000Z,4.80
2024-04-13T08:21:21.548Z,5.30
2024-04-13T08:23:50.960Z,6.40
2024-04-13T08:26:20.562Z,6.00
2024-04-13T08:28:50.060Z,4.60
2024-04-13T08:31:19.686Z,6.30
2024-04-13T08:33:49.472Z,5.30
2024-04-13T08:36:19.142Z,4.80
2024-04-13T08:38:49.891Z,4.50
2024-04-13T08:41:27.094Z,5.30
2024-04-13T08:43:57.515Z,4.40
2024-04-13T08:46:27.287Z,6.10
2024-04-13T08:48:57.038Z,4.90
2024-04-13T08:51:27.150Z,4.30
2024-04-13T08:53:56.712Z,4.70
2024-04-13T08:56:28.035Z,4.80
2024-04-13T08:58:58.537Z,6.00
2024-04-13T09:01:28.144Z,4.80
2024-04-13T09:03:58.273Z,6.60
2024-04-13T09:06:27.944Z,5.90
2024-04-13T09:08:58.556Z,5.00
2024-04-13T09:11:28.592Z,4.20
2024-04-13T09:13:58.221Z,4.80
2024-04-13T09:16:28.068Z,4.50
2024-04-13T09:18:58.046Z,6.60
2024-04-13T09:21:27.905Z,6.20
2024-04-13T09:23:57.492Z,5.20
2024-04-13T09:26:27.267Z,4.20
2024-04-13T09:28:56.921Z,7.30
2024-04-13T09:31:26.385Z,4.40
2024-04-13T09:33:56.036Z,4.90
2024-04-13T09:36:26.417Z,4.60
2024-04-13T09:38:56.059Z,4.50
2024-04-13T09:41:25.649Z,5.20
2024-04-13T09:43:55.115Z,6.30
2024-04-13T09:46:25.910Z,4.70
2024-04-13T09:49:00.172Z,6.30
2024-04-13T09:51:30.577Z,4.60
2024-04-13T09:54:00.215Z,4.80
2024-04-13T09:56:29.896Z,6.70
2024-04-13T09:58:59.476Z,5.60
2024-04-13T10:01:29.137Z,6.30
2024-04-13T10:03:59.437Z,6.60
2024-04-13T10:06:30.418Z,5.40
2024-04-13T10:08:59.983Z,4.70
2024-04-13T10:11:29.597Z,5.80
2024-04-13T10:13:59.056Z,5.00
2024-04-13T10:16:29.242Z,5.40
2024-04-13T10:18:58.919Z,4.10
2024-04-13T10:21:28.482Z,6.30
2024-04-13T10:23:58.030Z,4.90
2024-04-13T10:26:28.323Z,5.60
2024-04-13T10:29:00.958Z,6.10
2024-04-13T10:31:32.876Z,7.10
2024-04-13T10:34:02.619Z,5.30
2024-04-13T10:36:33.165Z,6.30
2024-04-13T10:39:03.398Z,5.60
2024-04-13T10:41:33.698Z,6.10
2024-04-13T10:44:03.608Z,7.60
2024-04-13T10:46:33.558Z,6.00
2024-04-13T10:49:05.485Z,5.60
2024-04-13T10:51:35.158Z,5.40
2024-04-13T10:54:04.875Z,5.30
2024-04-13T10:56:34.457Z,7.90
2024-04-13T10:59:03.884Z,4.20
2024-04-13T11:01:33.496Z,5.30
2024-04-13T11:04:07.865Z,5.30
2024-04-13T11:06:37.359Z,5.40
2024-04-13T11:09:06.981Z,6.30
2024-04-13T11:11:36.711Z,6.20
2024-04-13T11:14:06.259Z,5.50
2024-04-13T11:16:35.920Z,6.80
2024-04-13T11:19:05.745Z,5.10
2024-04-13T11:21:36.633Z,5.70
2024-04-13T11:24:09.677Z,5.20
2024-04-13T11:26:40.075Z,5.10
2024-04-13T11:29:09.939Z,5.30
2024-04-13T11:31:39.529Z,5.30
2024-04-13T11:34:09.071Z,5.60
2024-04-13T11:36:38.802Z,8.00
2024-04-13T11:39:10.337Z,4.70
2024-04-13T11:41:39.938Z,5.20
2024-04-13T11:44:09.474Z,6.90
2024-04-13T11:46:39.159Z,5.20
2024-04-13T11:49:08.812Z,5.20
2024-04-13T11:51:38.413Z,10.10
2024-04-13T11:54:08.020Z,4.60
2024-04-13T11:56:44.138Z,5.40
2024-04-13T11:59:15.837Z,4.50
2024-04-13T12:01:45.364Z,5.70
2024-04-13T12:04:15.309Z,5.20
2024-04-13T12:06:45.325Z,6.20
2024-04-13T12:09:14.923Z,6.20
2024-04-13T12:11:44.630Z,4.70
2024-04-13T12:14:16.209Z,4.60
2024-04-13T12:16:48.749Z,5.30
2024-04-13T12:19:18.464Z,6.00
2024-04-13T12:21:48.259Z,5.40
2024-04-13T12:24:18.047Z,5.40
2024-04-13T12:26:47.746Z,4.70
2024-04-13T12:29:17.907Z,5.20
2024-04-13T12:31:47.457Z,4.90
2024-04-13T12:34:17.028Z,4.80
2024-04-13T12:36:46.728Z,6.00
2024-04-13T12:39:17.896Z,6.70
2024-04-13T12:41:47.527Z,6.20
2024-04-13T12:44:16.941Z,5.60
2024-04-13T12:46:46.869Z,5.00
2024-04-13T12:49:16.332Z,4.70
2024-04-13T12:51:46.060Z,7.50
2024-04-13T12:54:15.641Z,6.10
2024-04-13T12:56:45.177Z,5.30
2024-04-13T12:59:14.868Z,6.00
2024-04-13T13:01:44.337Z,4.90
2024-04-13T13:04:14.082Z,4.80
2024-04-13T13:06:43.654Z,4.70
2024-04-13T13:09:13.257Z,4.90
2024-04-13T13:11:45.891Z,4.70
2024-04-13T13:14:16.551Z,5.70
2024-04-13T13:16:45.990Z,6.70
2024-04-13T13:19:15.906Z,6.50
2024-04-13T13:21:45.595Z,4.70
2024-04-13T13:24:15.895Z,5.00
2024-04-13T13:26:45.402Z,4.20
2024-04-13T13:29:14.933Z,5.00
2024-04-13T13:31:44.337Z,4.50
2024-04-13T13:34:13.926Z,6.70
2024-04-13T13:36:43.699Z,4.90
2024-04-13T13:39:13.698Z,5.70
2024-04-13T13:41:43.129Z,4.30
2024-04-13T13:44:12.687Z,4.90
2024-04-13T13:46:42.112Z,5.10
2024-04-13T13:49:11.729Z,6.00
2024-04-13T13:51:41.748Z,4.80
2024-04-13T13:54:11.627Z,5.90
2024-04-13T13:56:41.697Z,4.90
2024-04-13T13:59:11.340Z,5.90
2024-04-13T14:01:40.812Z,6.10
2024-04-13T14:04:10.858Z,4.60
2024-04-13T14:06:40.378Z,5.00
2024-04-13T14:09:09.910Z,4.60
2024-04-13T14:11:42.045Z,5.00
2024-04-13T14:14:13.384Z,4.60
2024-04-13T14:16:42.892Z,4.50
2024-04-13T14:19:12.529Z,6.70
2024-04-13T14:21:41.963Z,4.10
2024-04-13T14:24:11.456Z,5.10
2024-04-13T14:26:41.121Z,4.20
2024-04-13T14:29:10.740Z,4.50
2024-04-13T14:31:40.245Z,4.80
2024-04-13T14:34:11.244Z,4.60
2024-04-13T14:36:41.822Z,4.30
2024-04-13T14:39:11.456Z,5.30
2024-04-13T14:41:41.060Z,4.40
2024-04-13T14:44:11.326Z,5.30
2024-04-13T14:46:40.782Z,3.90
2024-04-13T14:49:10.358Z,6.00
2024-04-13T14:51:39.875Z,4.00
2024-04-13T14:54:09.419Z,5.50
2024-04-13T14:56:39.311Z,5.00
2024-04-13T14:59:09.324Z,4.60
2024-04-13T15:01:39.053Z,3.90
2024-04-13T15:04:10.016Z,5.10
2024-04-13T15:06:39.871Z,3.60
2024-04-13T15:09:09.307Z,4.20
2024-04-13T15:11:39.304Z,4.00
2024-04-13T15:14:08.965Z,4.30
2024-04-13T15:16:38.433Z,4.40
2024-04-13T15:19:09.678Z,5.30
2024-04-13T15:21:39.611Z,4.20
2024-04-13T15:24:09.738Z,4.20
2024-04-13T15:26:39.136Z,4.60
2024-04-13T15:29:08.715Z,4.60
2024-04-13T15:31:38.230Z,3.80
2024-04-13T15:34:07.771Z,4.90
2024-04-13T15:36:37.306Z,4.50
2024-04-13T15:39:07.083Z,4.70
2024-04-13T15:41:36.560Z,4.70
2024-04-13T15:44:06.302Z,4.50
2024-04-13T15:46:36.102Z,4.50
2024-04-13T15:49:05.687Z,4.60
2024-04-13T15:51:35.588Z,4.80
2024-04-13T15:54:11.729Z,11.50
2024-04-13T15:56:43.392Z,5.40
2024-04-13T15:59:13.079Z,6.30
2024-04-13T16:01:42.523Z,5.70
2024-04-13T16:04:12.120Z,5.20
2024-04-13T16:06:42.314Z,7.70
2024-04-13T16:09:12.734Z,8.00
2024-04-13T16:11:42.297Z,5.60
2024-04-13T16:14:11.756Z,6.70
2024-04-13T16:16:41.763Z,4.80
2024-04-13T16:19:11.227Z,5.10
2024-04-13T16:21:40.784Z,4.40
2024-04-13T16:24:10.320Z,5.10
2024-04-13T16:26:39.751Z,4.50
2024-04-13T16:29:11.316Z,5.10
2024-04-13T16:31:40.738Z,5.70
2024-04-13T16:34:10.205Z,5.40
2024-04-13T16:36:39.676Z,4.80
2024-04-13T16:39:09.487Z,5.10
2024-04-13T16:41:38.919Z,4.80
2024-04-13T16:44:08.616Z,4.90
2024-04-13T16:46:38.109Z,5.00
2024-04-13T16:49:07.626Z,4.50
2024-04-13T16:51:41.782Z,5.20
2024-04-13T16:54:12.091Z,5.70
2024-04-13T16:56:41.542Z,5.20
2024-04-13T16:59:10.922Z,5.60
2024-04-13T17:01:40.526Z,5.70
2024-04-13T17:04:10.434Z,5.10
2024-04-13T17:06:41.521Z,5.00
2024-04-13T17:09:10.978Z,5.80
2024-04-13T17:11:40.543Z,4.70
2024-04-13T17:14:10.141Z,4.80
2024-04-13T17:16:40.401Z,5.20
2024-04-13T17:19:12.890Z,5.00
2024-04-13T17:21:42.354Z,5.70
2024-04-13T17:24:12.007Z,5.40
2024-04-13T17:26:41.527Z,6.20
2024-04-13T17:29:11.091Z,5.70
2024-04-13T17:31:40.505Z,5.00
2024-04-13T17:34:10.148Z,8.20
2024-04-13T17:36:39.578Z,5.20
2024-04-13T17:39:09.966Z,8.30
2024-04-13T17:41:39.774Z,5.70
2024-04-13T17:44:09.277Z,6.80
2024-04-13T17:46:38.814Z,4.80
2024-04-13T17:49:08.379Z,5.90
2024-04-13T17:51:37.888Z,5.00
2024-04-13T17:54:10.300Z,5.30
2024-04-13T17:56:39.780Z,4.80
2024-04-13T17:59:09.306Z,5.80
2024-04-13T18:01:38.832Z,8.00
2024-04-13T18:04:08.616Z,4.60
2024-04-13T18:06:38.190Z,5.10
2024-04-13T18:09:07.634Z,5.20
2024-04-13T18:11:37.165Z,5.40
2024-04-13T18:14:06.895Z,5.30
2024-04-13T18:16:36.381Z,5.90
2024-04-13T18:19:07.842Z,7.40
2024-04-13T18:21:37.430Z,5.60
2024-04-13T18:24:09.043Z,6.70
2024-04-13T18:26:38.572Z,6.40
2024-04-13T18:29:08.096Z,5.80
2024-04-13T18:31:41.915Z,7.40
2024-04-13T18:34:11.796Z,5.80
2024-04-13T18:36:41.487Z,7.60
2024-04-13T18:39:11.209Z,6.20
2024-04-13T18:41:40.828Z,6.00
2024-04-13T18:44:11.601Z,7.10
2024-04-13T18:46:41.165Z,8.60
2024-04-13T18:49:10.930Z,7.20
2024-04-13T18:51:42.061Z,6.80
2024-04-13T18:54:11.642Z,10.30
2024-04-13T18:56:41.662Z,7.20
2024-04-13T18:59:11.154Z,8.20
2024-04-13T19:01:40.600Z,8.80
2024-04-13T19:04:11.154Z,9.10
2024-04-13T19:06:40.753Z,10.30
2024-04-13T19:09:10.497Z,7.70
2024-04-13T19:11:40.640Z,11.20
2024-04-13T19:14:10.287Z,9.00
2024-04-13T19:16:39.762Z,8.50
2024-04-13T19:19:11.398Z,10.70
2024-04-13T19:21:40.979Z,10.00
2024-04-13T19:24:10.709Z,9.80
2024-04-13T19:26:41.385Z,11.90
2024-04-13T19:29:11.033Z,9.40
2024-04-13T19:31:40.577Z,9.80
2024-04-13T19:34:10.659Z,8.60
2024-04-13T19:36:40.411Z,10.40
2024-04-13T19:39:10.761Z,9.20
2024-04-13T19:41:43.696Z,8.10
2024-04-13T19:44:13.973Z,12.30
2024-04-13T19:46:43.431Z,9.20
2024-04-13T19:49:12.976Z,8.90
2024-04-13T19:51:42.446Z,11.10
2024-04-13T19:54:12.061Z,11.00
2024-04-13T19:56:41.650Z,12.00
2024-04-13T19:59:11.140Z,12.50
2024-04-13T20:01:41.494Z,11.30
2024-04-13T20:04:11.233Z,11.50
2024-04-13T20:06:41.640Z,11.00
2024-04-13T20:09:12.046Z,10.10
2024-04-13T20:11:41.716Z,12.70
2024-04-13T20:14:11.199Z,12.60
2024-04-13T20:16:59.230Z,12.50
2024-04-13T20:19:28.690Z,11.40
2024-04-13T20:21:58.386Z,11.00
2024-04-13T20:24:28.358Z,13.40
2024-04-13T20:26:57.886Z,13.50
2024-04-13T20:29:27.380Z,12.60
2024-04-13T20:31:57.619Z,11.80
2024-04-13T20:34:27.114Z,11.00
2024-04-13T20:36:56.659Z,12.90
2024-04-13T20:39:26.181Z,12.00
2024-04-13T20:41:55.641Z,12.30
2024-04-13T20:44:26.164Z,12.20
2024-04-13T20:46:55.560Z,13.00
2024-04-13T20:49:25.058Z,11.60
2024-04-13T20:51:54.968Z,13.10
2024-04-13T20:54:24.582Z,13.20
2024-04-13T20:56:56.266Z,8.70
2024-04-13T20:59:26.063Z,9.30
2024-04-13T21:01:56.355Z,10.30
2024-04-13T21:04:25.897Z,12.10
2024-04-13T21:06:55.465Z,9.40
2024-04-13T21:09:24.932Z,11.60
2024-04-13T21:11:54.568Z,10.50
2024-04-13T21:14:24.061Z,9.60
2024-04-13T21:16:53.625Z,9.70
2024-04-13T21:19:24.427Z,10.10
2024-04-13T21:21:54.000Z,8.20
2024-04-13T21:24:24.203Z,11.10
2024-04-13T21:26:53.633Z,12.60
2024-04-13T21:29:23.318Z,9.70
2024-04-13T21:31:52.736Z,11.70
2024-04-13T21:34:23.685Z,10.30
2024-04-13T21:36:53.453Z,9.20
2024-04-13T21:39:25.092Z,10.70
2024-04-13T21:41:54.526Z,9.10
2024-04-13T21:44:24.069Z,8.20
2024-04-13T21:46:53.592Z,12.30
2024-04-13T21:49:23.184Z,8.60
2024-04-13T21:51:52.680Z,9.60
2024-04-13T21:54:23.424Z,8.80
2024-04-13T21:56:54.185Z,9.00
2024-04-13T21:59:23.711Z,9.20
2024-04-13T22:01:53.452Z,9.00
2024-04-13T22:04:23.190Z,9.00
2024-04-13T22:06:52.809Z,8.20
2024-04-13T22:09:22.256Z,8.30
2024-04-13T22:11:51.989Z,8.20
2024-04-13T22:14:21.685Z,9.80
2024-04-13T22:16:51.178Z,8.00
2024-04-13T22:19:20.811Z,9.40
2024-04-13T22:21:50.484Z,10.00
2024-04-13T22:24:22.213Z,9.10
2024-04-13T22:26:52.913Z,8.60
2024-04-13T22:29:23.452Z,9.10
2024-04-13T22:31:52.919Z,8.90
2024-04-13T22:34:22.615Z,8.80
2024-04-13T22:36:52.231Z,9.30
2024-04-13T22:39:21.806Z,8.90
2024-04-13T22:41:51.445Z,11.00
2024-04-13T22:44:20.949Z,8.20
2024-04-13T22:46:50.514Z,12.30
2024-04-13T22:49:19.958Z,9.20
2024-04-13T22:51:49.535Z,9.50
2024-04-13T22:54:19.065Z,9.30
2024-04-13T22:56:48.524Z,9.80
2024-04-13T22:59:18.218Z,8.60
2024-04-13T23:01:48.773Z,10.40
2024-04-13T23:04:18.574Z,10.00
2024-04-13T23:06:48.245Z,11.20
2024-04-13T23:09:17.634Z,8.70
2024-04-13T23:11:47.185Z,9.70
2024-04-13T23:14:16.585Z,10.10
2024-04-13T23:16:46.196Z,10.10
2024-04-13T23:19:15.735Z,8.40
2024-04-13T23:21:45.267Z,10.80
2024-04-13T23:24:14.763Z,11.80
2024-04-13T23:26:45.168Z,9.30
2024-04-13T23:29:14.819Z,7.70
2024-04-13T23:31:44.429Z,8.10
2024-04-13T23:34:14.000Z,7.00
2024-04-13T23:36:43.620Z,9.30
2024-04-13T23:39:12.989Z,9.10
2024-04-13T23:41:42.475Z,8.10
2024-04-13T23:44:14.290Z,9.90
2024-04-13T23:46:44.128Z,10.80
2024-04-13T23:49:13.692Z,9.10
2024-04-13T23:51:43.310Z,11.10
2024-04-13T23:54:12.822Z,11.90
2024-04-13T23:56:44.566Z,8.40
2024-04-13T23:59:14.149Z,10.20
